• Join FlightAware (Why Join?)
  • Login
  • US Flag 
Trick or treat! (Boo!!) 
04:12PM EDT


 

Airport Tracker/Info


-or-


 

Live Flight TrackerFlight Track Log ✈ AAL1459 ✈ 07-May-2013 ✈ KORD - KRNO

Flight Track Log - Related Links

Times and Time Zones

All times are in EDT time to prevent confusion due to time zone crossing. See the AAL1459 flight status page for this flight to view local times or setup timezone preferences in your user account.

Time Position Orientation Groundspeed Altitude Reporting Facility
EDT Latitude Longitude Course Direction KTS MPH feet Rate Location/Type
08:02PM 42.0025 -87.9478 270° West 182 209 2,000  Level Chicago Center
08:03PM 42.0500 -87.9833 331° Northwest 221 254 3,700 2,640 Climbing Chicago TRACON
08:05PM 41.9667 -88.3923 270° West  Level FlightAware Approximate
08:05PM 42.1419 -88.1486 307° West 292 336 10,300  Level Chicago Center
08:06PM 41.9668 -88.5564 270° West  Level FlightAware Approximate
08:06PM 42.1383 -88.2644 268° West 310 357 11,900  Level Chicago Center
08:07PM 41.9667 -88.7206 270° West  Level FlightAware Approximate
08:07PM 42.1331 -88.4017 267° West 362 417 14,700  Level Chicago Center
08:08PM 41.9668 -88.8770 270° West  Level FlightAware Approximate
08:09PM 42.1286 -88.5383 268° West 370 426 17,100  Level Chicago Center
08:10PM 42.1244 -88.6831 268° West 385 443 19,300 2,220 Climbing Chicago Center
08:11PM 42.1183 -88.8594 267° West 402 463 21,800 2,100 Climbing Chicago Center
08:12PM 42.1133 -89.0169 268° West 414 476 23,700 1,740 Climbing Chicago Center
08:13PM 42.1086 -89.1756 268° West 419 482 25,500 1,500 Climbing Chicago Center
08:14PM 42.1053 -89.3417 269° West 437 503 26,900 1,320 Climbing Chicago Center
08:15PM 42.1008 -89.5086 268° West 443 510 28,300 1,440 Climbing Chicago Center
08:16PM 42.1008 -89.7106 270° West 458 527 29,900 1,500 Climbing Chicago Center
08:17PM 42.1011 -89.8797 270° West 453 521 31,500 1,260 Climbing Chicago Center
08:18PM 42.1000 -90.0231 269° West 449 517 32,600 1,200 Climbing Chicago Center
08:20PM 42.1297 -90.3894 276° West 455 524 35,300 1,080 Climbing Chicago Center
08:21PM 42.1528 -90.5494 281° West 443 510 36,000 300 Climbing Chicago Center
08:22PM 42.1758 -90.7136 281° West 448 516 36,000  Level Chicago Center
08:23PM 42.1964 -90.8792 280° West 453 521 36,000  Level Chicago Center
08:24PM 42.2250 -91.0722 281° West 445 512 36,000  Level Chicago Center
08:25PM 42.2464 -91.2364 280° West 445 512 36,000  Level Chicago Center
08:26PM 42.2672 -91.3947 280° West 437 503 36,000  Level Chicago Center
08:27PM 42.2883 -91.5536 280° West 432 497 36,000  Level Chicago Center
08:28PM 42.3075 -91.7086 280° West 425 489 36,000  Level Chicago Center
08:29PM 42.3319 -91.8936 280° West 420 483 36,000  Level Chicago Center
08:30PM 42.3514 -92.0461 280° West 417 480 36,000  Level Chicago Center
08:31PM 42.3661 -92.1736 279° West 418 481 36,000  Level Minneapolis Center
08:32PM 42.3864 -92.3303 280° West 422 486 36,000  Level Minneapolis Center
08:33PM 42.4097 -92.5206 279° West 427 491 36,000  Level Minneapolis Center
08:34PM 42.4281 -92.6772 279° West 427 491 36,000  Level Minneapolis Center
08:35PM 42.4478 -92.8347 280° West 428 493 36,000  Level Minneapolis Center
08:36PM 42.4664 -92.9964 279° West 430 495 36,000  Level Minneapolis Center
08:37PM 42.4847 -93.1536 279° West 432 497 36,000  Level Minneapolis Center
08:38PM 42.5064 -93.3439 279° West 431 496 36,000  Level Minneapolis Center
08:39PM 42.5253 -93.5042 279° West 432 497 36,000  Level Minneapolis Center
08:40PM 42.5431 -93.6644 279° West 434 499 36,000  Level Minneapolis Center
08:42PM 42.5608 -93.8231 279° West 431 496 36,000  Level Minneapolis Center
08:43PM 42.5783 -93.9858 278° West 437 503 36,000  Level Minneapolis Center
08:44PM 42.5986 -94.1761 278° West 430 495 36,000  Level Minneapolis Center
08:45PM 42.6131 -94.3378 277° West 436 502 36,000  Level Minneapolis Center
08:46PM 42.6083 -94.4992 268° West 434 499 36,000  Level Minneapolis Center
08:47PM 42.6056 -94.6706 269° West 424 488 36,000  Level Minneapolis Center
08:48PM 42.6036 -94.8328 269° West 429 494 36,000  Level Minneapolis Center
08:49PM 42.6003 -94.9936 268° West 428 493 36,000  Level Minneapolis Center
08:50PM 42.5981 -95.1522 269° West 424 488 36,000  Level Minneapolis Center
08:51PM 42.5933 -95.3419 268° West 421 484 36,000  Level Minneapolis Center
08:52PM 42.5903 -95.5006 269° West 421 484 36,000  Level Minneapolis Center
08:53PM 42.5850 -95.6564 267° West 417 480 36,000  Level Minneapolis Center
08:54PM 42.5819 -95.8094 268° West 410 472 36,000  Level Minneapolis Center
08:55PM 42.5772 -95.9650 268° West 413 475 36,000  Level Minneapolis Center
08:56PM 42.5725 -96.1517 268° West 415 478 36,000  Level Minneapolis Center
08:57PM 42.5678 -96.3067 268° West 413 475 36,000  Level Minneapolis Center
08:58PM 42.5633 -96.4636 268° West 416 479 36,000  Level Minneapolis Center
08:59PM 42.5572 -96.6206 267° West 418 481 36,000  Level Minneapolis Center
09:00PM 42.5525 -96.7767 268° West 417 480 36,000  Level Minneapolis Center
09:01PM 42.5453 -96.9644 267° West 418 481 36,000  Level Minneapolis Center
09:02PM 42.5400 -97.1247 267° West 422 486 36,000  Level Minneapolis Center
09:03PM 42.5336 -97.2825 267° West 423 487 36,000  Level Minneapolis Center
09:04PM 42.5278 -97.4419 267° West 425 489 36,000  Level Minneapolis Center
09:05PM 42.5214 -97.5989 267° West 421 484 36,000  Level Minneapolis Center
09:06PM 42.5144 -97.7581 267° West 424 488 36,000  Level Minneapolis Center
09:07PM 42.5069 -97.9389 267° West 422 486 36,000  Level Minneapolis Center
09:08PM 42.4986 -98.0975 266° West 422 486 36,000  Level Minneapolis Center
09:09PM 42.4914 -98.2567 267° West 424 488 36,000  Level Minneapolis Center
09:11PM 42.4842 -98.4164 267° West 426 490 36,000  Level Minneapolis Center
09:12PM 42.4747 -98.6067 266° West 424 488 36,000  Level Minneapolis Center
09:13PM 42.4628 -98.7622 264° West 421 484 36,000  Level Minneapolis Center
09:14PM 42.4472 -98.9189 262° West 420 483 36,000  Level Minneapolis Center
09:15PM 42.4322 -99.0758 263° West 422 486 36,000  Level Minneapolis Center
09:16PM 42.4150 -99.2289 261° West 416 479 36,000  Level Minneapolis Center
09:17PM 42.3997 -99.3850 263° West 420 483 36,000  Level Denver Center
09:18PM 42.3833 -99.5392 262° West 416 479 36,000  Level Denver Center
09:19PM 42.3653 -99.7011 261° West 413 475 36,000  Level Denver Center
09:20PM 42.3478 -99.8747 262° West 418 481 36,000  Level Denver Center
09:21PM 42.3303 -100.0219 261° West 418 481 36,000  Level Denver Center
09:22PM 42.3142 -100.1697 262° West 417 480 36,000  Level Denver Center
09:23PM 42.2953 -100.3433 262° West 418 481 36,000  Level Denver Center
09:24PM 42.2775 -100.4922 261° West 419 482 36,000 360 Level Denver Center
09:25PM 42.2578 -100.6678 261° West 422 486 36,800 660 Climbing Denver Center
09:26PM 42.2406 -100.8125 261° West 412 474 37,400 480 Climbing Denver Center
09:27PM 42.2208 -100.9881 261° West 424 488 37,800 240 Climbing Denver Center
09:28PM 42.2017 -101.1406 260° West 431 496 38,000 60 Climbing Denver Center
09:29PM 42.1772 -101.3431 261° West 428 493 38,000  Level Denver Center
09:30PM 42.1592 -101.4925 261° West 423 487 38,000  Level Denver Center
09:31PM 42.1342 -101.6900 260° West 419 482 38,000  Level Denver Center
09:32PM 42.1156 -101.8364 260° West 416 479 38,000  Level Denver Center
09:34PM 42.0939 -102.0083 260° West 418 481 38,000  Level Denver Center
09:35PM 42.0878 -102.1825 267° West 418 481 38,000  Level Denver Center
09:36PM 42.0803 -102.3517 267° West 417 480 38,000  Level Denver Center
09:37PM 42.0753 -102.5025 267° West 421 484 38,000  Level Denver Center
09:38PM 42.0656 -102.7042 266° West 422 486 38,000  Level Denver Center
09:39PM 42.0619 -102.8319 268° West 427 491 38,000  Level Denver Center
09:40PM 42.0528 -103.0403 267° West 437 503 38,000  Level Denver Center
09:41PM 42.0461 -103.1983 267° West 440 506 38,000  Level Denver Center
09:42PM 42.0361 -103.3828 266° West 442 509 38,000  Level Denver Center
09:43PM 42.0283 -103.5389 266° West 438 504 38,000  Level Denver Center
09:44PM 42.0194 -103.7183 266° West 430 495 38,000  Level Denver Center
09:45PM 42.0119 -103.8714 266° West 428 493 38,000  Level Denver Center
09:46PM 42.0044 -103.9972 265° West 424 488 38,000  Level Denver Center
09:47PM 41.9939 -104.2006 266° West 425 489 38,000  Level Denver Center
09:48PM 41.9864 -104.3269 265° West 424 488 38,000  Level Denver Center
09:49PM 41.9756 -104.5322 266° West 428 493 38,000  Level Denver Center
09:50PM 41.9719 -104.6869 268° West 431 496 38,000  Level Denver Center
09:51PM 41.9689 -104.8156 268° West 431 496 38,000  Level Denver Center
09:52PM 41.9631 -105.0225 268° West 432 497 38,000  Level Denver Center
09:53PM 41.9583 -105.1517 267° West 433 498 38,000  Level Denver Center
09:54PM 41.9522 -105.3600 268° West 435 501 38,000  Level Denver Center
09:55PM 41.9478 -105.5150 268° West 434 499 38,000  Level Denver Center
09:56PM 41.9408 -105.6725 267° West 440 506 38,000  Level Denver Center
09:57PM 41.9344 -105.8578 267° West 444 511 38,000  Level Denver Center
09:58PM 41.9292 -106.0181 268° West 448 516 38,000  Level Denver Center
10:00PM 41.9214 -106.2058 267° West 450 518 38,000  Level Denver Center
10:01PM 41.9158 -106.3686 267° West 455 524 38,000  Level Denver Center
10:02PM 41.9081 -106.5533 267° West 455 524 38,000  Level Denver Center
10:03PM 41.9011 -106.7150 267° West 454 522 38,000  Level Denver Center
10:04PM 41.8928 -106.8761 266° West 453 521 38,000  Level Denver Center
10:05PM 41.8861 -107.0672 267° West 459 528 38,000  Level Denver Center
10:06PM 41.8772 -107.2308 266° West 459 528 38,000  Level Denver Center
10:07PM 41.8672 -107.4211 266° West 460 529 38,000  Level Denver Center
10:08PM 41.8597 -107.5858 267° West 462 532 38,000  Level Denver Center
10:09PM 41.8489 -107.7756 266° West 458 527 38,000  Level Denver Center
10:10PM 41.8408 -107.9389 266° West 461 531 38,000  Level Denver Center
10:11PM 41.8314 -108.1025 266° West 461 531 38,000  Level Denver Center
10:11PM 41.8244 -108.2106 265° West 458 527 38,000  Level Salt Lake Center
10:12PM 41.8150 -108.3736 266° West 460 529 38,000  Level Salt Lake Center
10:13PM 41.8042 -108.5650 266° West 461 531 38,000  Level Salt Lake Center
10:14PM 41.7950 -108.7253 266° West 456 525 38,000  Level Salt Lake Center
10:15PM 41.7842 -108.8872 265° West 459 528 38,000  Level Salt Lake Center
10:16PM 41.7719 -109.0736 265° West 456 525 38,000  Level Salt Lake Center
10:17PM 41.7628 -109.2347 266° West 457 526 38,000  Level Salt Lake Center
10:18PM 41.7492 -109.4231 265° West 460 529 38,000  Level Salt Lake Center
10:19PM 41.7378 -109.5856 265° West 461 531 38,000  Level Salt Lake Center
10:21PM 41.7247 -109.7767 265° West 463 533 38,000  Level Salt Lake Center
10:22PM 41.7131 -109.9408 265° West 464 534 38,000  Level Salt Lake Center
10:23PM 41.7000 -110.1044 264° West 463 533 38,000  Level Salt Lake Center
10:24PM 41.6861 -110.2975 265° West 467 537 38,000  Level Salt Lake Center
10:25PM 41.6742 -110.4619 264° West 466 536 38,000  Level Salt Lake Center
10:26PM 41.6589 -110.6547 264° West 469 540 38,000  Level Salt Lake Center
10:27PM 41.6464 -110.8206 264° West 469 540 38,000  Level Salt Lake Center
10:28PM 41.6306 -111.0097 264° West 467 537 38,000  Level Salt Lake Center
10:29PM 41.6153 -111.1819 263° West 469 540 38,000  Level Salt Lake Center
10:30PM 41.6008 -111.3525 264° West 465 535 38,000  Level Salt Lake Center
10:31PM 41.5867 -111.5225 264° West 466 536 38,000  Level Salt Lake Center
10:32PM 41.5714 -111.6936 263° West 468 539 38,000  Level Salt Lake Center
10:33PM 41.5558 -111.8642 263° West 468 539 38,000  Level Salt Lake Center
10:34PM 41.5414 -112.0350 264° West 468 539 38,000  Level Salt Lake Center
10:35PM 41.5228 -112.2400 263° West 469 540 38,000  Level Salt Lake Center
10:36PM 41.5064 -112.4117 263° West 471 542 38,000  Level Salt Lake Center
10:37PM 41.4903 -112.5839 263° West 472 543 38,000  Level Salt Lake Center
10:38PM 41.4733 -112.7567 263° West 473 544 38,000  Level Salt Lake Center
10:39PM 41.4417 -112.9242 256° West 469 540 38,000  Level Salt Lake Center
10:40PM 41.4061 -113.0914 254° West 471 542 38,000  Level Salt Lake Center
10:41PM 41.3706 -113.2606 254° West 474 545 38,000  Level Salt Lake Center
10:42PM 41.3281 -113.4611 254° West 472 543 38,000  Level Salt Lake Center
10:43PM 41.2939 -113.6275 255° West 468 539 38,000  Level Salt Lake Center
10:44PM 41.2594 -113.7942 255° West 468 539 38,000  Level Salt Lake Center
10:45PM 41.2244 -113.9608 254° West 469 540 38,000  Level Salt Lake Center
10:46PM 41.1878 -114.1264 254° West 469 540 38,000  Level Salt Lake Center
10:47PM 41.1511 -114.2911 254° West 468 539 38,000  Level Salt Lake Center
10:48PM 41.1047 -114.4478 249° West 460 529 38,000  Level Salt Lake Center
10:49PM 41.0536 -114.6031 246° West 459 528 38,000  Level Salt Lake Center
10:50PM 40.9986 -114.7697 246° West 460 529 38,000  Level Salt Lake Center
10:51PM 40.9406 -114.9442 246° West 461 531 38,000  Level Salt Lake Center
10:52PM 40.8919 -115.0942 247° West 464 534 38,000  Level Salt Lake Center
10:53PM 40.8417 -115.2458 246° West 467 537 38,000  Level Salt Lake Center
10:54PM 40.7856 -115.4200 247° West 463 533 38,000  Level Salt Lake Center
10:55PM 40.7361 -115.5719 247° West 467 537 38,000  Level Salt Lake Center
10:56PM 40.6772 -115.7461 246° West 467 537 38,000  Level Salt Lake Center
10:57PM 40.6269 -115.8958 246° West 467 537 38,000  Level Salt Lake Center
10:58PM 40.5975 -116.0542 256° West 464 534 38,000  Level Salt Lake Center
10:59PM 40.5661 -116.2417 258° West 469 540 38,000  Level Salt Lake Center
11:00PM 40.5372 -116.4017 257° West 470 541 38,000  Level Salt Lake Center
11:01PM 40.5033 -116.5878 257° West 470 541 38,000  Level Salt Lake Center
11:02PM 40.4528 -116.7375 246° West 470 541 38,000  Level Salt Lake Center
11:03PM 40.3944 -116.8833 242° Southwest 473 544 38,000  Level Salt Lake Center
11:04PM 40.3328 -117.0453 243° Southwest 474 545 38,000  Level Salt Lake Center
11:06PM 40.2658 -117.2150 243° Southwest 471 542 38,000  Level Salt Lake Center
11:07PM 40.2081 -117.3589 242° Southwest 467 537 38,000 -300 Level Salt Lake Center
11:08PM 40.1508 -117.5042 243° Southwest 467 537 37,400 -780 Descending Salt Lake Center
11:08PM 40.1194 -117.5836 243° Southwest 469 540 36,900 -1,020 Descending Oakland Center
11:09PM 40.0572 -117.7397 243° Southwest 482 555 35,900 -1,020 Descending Oakland Center
11:10PM 39.9947 -117.8939 242° Southwest 480 552 34,900 -1,500 Descending Oakland Center
11:11PM 39.9325 -118.0483 242° Southwest 482 555 32,900 -2,100 Descending Oakland Center
11:12PM 39.8692 -118.2036 242° Southwest 486 559 30,700 -2,220 Descending Oakland Center
11:13PM 39.8042 -118.3631 242° Southwest 497 572 28,500 -2,760 Descending Oakland Center
11:14PM 39.7292 -118.5433 242° Southwest 477 549 25,100 -2,940 Descending Oakland Center
11:15PM 39.6728 -118.6825 242° Southwest 445 512 22,500 -2,340 Descending Oakland Center
11:16PM 39.6178 -118.8133 241° Southwest 423 487 20,400 -2,100 Descending Oakland Center
11:17PM 39.5656 -118.9392 242° Southwest 407 468 18,300 -2,040 Descending Oakland Center
11:18PM 39.5133 -119.0631 241° Southwest 398 458 16,300 -1,440 Descending Oakland Center
11:19PM 39.4625 -119.1822 241° Southwest 383 441 15,400 -1,140 Descending Oakland Center
11:20PM 39.4128 -119.3014 242° Southwest 380 437 14,100 -720 Descending Oakland Center
11:21PM 39.3633 -119.4147 241° Southwest 368 423 14,000 -600 Descending Oakland Center
11:22PM 39.3025 -119.5250 235° Southwest 327 376 13,000 -540 Descending Oakland Center
11:23PM 39.2256 -119.5833 210° Southwest 322 371 13,000 -360 Level Oakland Center
11:24PM 39.1792 -119.6600 232° Southwest 297 342 12,300 -840 Descending Oakland Center
11:25PM 39.1822 -119.7433 273° West 256 295 11,300 -1,080 Descending Oakland Center
11:26PM 39.2317 -119.7669 340° North 224 258 10,200 -1,140 Descending Oakland Center
11:27PM 39.2803 -119.7683 359° North 193 222 9,100 -1,140 Descending Oakland Center